Terminal Aerodrome Forecast
Issued by NWS

Home | Current Version | Previous Version | Text Only | Print | Product List | Glossary On
Versions: 1 2 3 4 5 6 7 8 9 10 11 12 13 14 15 16 17 18 19 20 21 22 23 24 25 26 27 28
000
FTAK31 PANC 282339
TAFADQ
TAF
PADQ 282339Z 2900/2924 10005KT P6SM FEW035 OVC090
     FM290600 07007KT P6SM -RA BKN025 OVC040
     FM291200 03005KT 4SM -RA BR SCT008 OVC015
     FM291900 06010KT P6SM SCT015 OVC030=

USA.gov is the U.S. government's official web portal to all federal, state and local government web resources and services.